• Join FlightAware (Why Join?)
  • Login
  • US Flag 
03:34AM EDT


 

Airport Tracker/Info


-or-


 

Live Flight TrackerFlight Track Log ✈ SWA1563 ✈ 20-Apr-2013 ✈ KHRL - KHOU

Flight Track Log - Related Links

Times and Time Zones

All times are in EDT time to prevent confusion due to time zone crossing. See the SWA1563 flight status page for this flight to view local times or setup timezone preferences in your user account.

Time Position Orientation Groundspeed Altitude Reporting Facility
EDT Latitude Longitude Course Direction KTS MPH feet Rate Location/Type
11:59AM 26.2481 -97.6597 359° North 148 170 1,100  Level Houston Center
11:59AM 26.2631 -97.6600 359° North 157 181 1,500 2,280 Climbing Houston Center
12:00PM 26.3114 -97.6275 31° Northeast 212 244 3,900 2,520 Climbing Houston Center
12:01PM 26.3783 -97.5792 33° Northeast 264 304 6,900 3,000 Climbing Houston Center
12:02PM 26.4433 -97.5556 18° North 294 338 10,200 3,480 Climbing Houston Center
12:03PM 26.5419 -97.5481 North 328 377 13,600 3,120 Climbing Houston Center
12:04PM 26.6369 -97.5411 North 340 391 16,800 2,820 Climbing Houston Center
12:05PM 26.7461 -97.5325 North 364 419 19,500 2,640 Climbing Houston Center
12:06PM 26.8497 -97.5264 North 359 413 22,300 2,400 Climbing Houston Center
12:07PM 26.9678 -97.5150 North 422 486 24,500 2,340 Climbing Houston Center
12:08PM 27.0686 -97.4667 23° Northeast 397 457 27,200 2,100 Climbing Houston Center
12:09PM 27.1739 -97.3981 30° Northeast 405 466 28,900 1,500 Climbing Houston Center
12:10PM 27.2792 -97.3322 29° Northeast 426 490 30,400 1,500 Climbing Houston Center
12:11PM 27.3875 -97.2642 29° Northeast 441 507 32,100 1,740 Climbing Houston Center
12:12PM 27.4947 -97.1975 29° Northeast 442 509 34,100 1,380 Climbing Houston Center
12:13PM 27.6172 -97.1194 29° Northeast 439 505 35,000 420 Climbing Houston Center
12:14PM 27.7236 -97.0525 29° Northeast 437 503 35,000 -420 Level Houston Center
12:15PM 27.8356 -97.0069 20° North 430 495 34,200 -840 Descending Houston Center
12:16PM 27.9506 -96.9614 19° North 434 499 33,300 -600 Descending Houston Center
12:17PM 28.0611 -96.9003 26° Northeast 444 511 33,000 -180 Descending Houston Center
12:18PM 28.1681 -96.8261 31° Northeast 450 518 33,000  Level Houston Center
12:19PM 28.2964 -96.7375 31° Northeast 451 519 33,000 -240 Level Houston Center
12:20PM 28.4031 -96.6642 31° Northeast 450 518 32,600 -1,500 Descending Houston Center
12:21PM 28.5094 -96.5897 32° Northeast 451 519 29,900 -2,460 Descending Houston Center
12:22PM 28.6108 -96.5194 31° Northeast 438 504 27,600 -2,160 Descending Houston Center
12:24PM 28.7067 -96.4544 31° Northeast 415 478 25,500 -2,280 Descending Houston Center
12:25PM 28.8197 -96.3747 32° Northeast 402 463 22,900 -2,280 Descending Houston Center
12:26PM 28.9122 -96.3108 31° Northeast 394 453 20,800 -2,040 Descending Houston Center
12:27PM 29.0006 -96.2483 32° Northeast 380 437 18,800 -1,980 Descending Houston Center
12:28PM 29.0858 -96.1889 31° Northeast 365 420 16,800 -2,100 Descending Houston Center
12:28PM 29.1372 -96.1525 32° Northeast 360 414 15,600 -1,920 Descending Houston Center
12:29PM 29.1706 -96.1303 30° Northeast 360 414 14,800 -2,160 Descending Houston Center
12:29PM 29.2264 -96.0900 32° Northeast 347 399 13,400 -2,340 Descending Houston Center
12:30PM 29.2664 -96.0625 31° Northeast 343 395 12,400 -1,380 Descending Houston Center
12:30PM 29.3008 -96.0311 38° Northeast 330 380 12,000 -1,020 Descending Houston Center
12:31PM 29.3197 -95.9800 67° East 321 369 11,400 -1,320 Descending Houston Center
12:31PM 29.3328 -95.9389 70° East 305 351 10,700 -1,560 Descending Houston Center
12:32PM 29.3461 -95.8889 73° East 304 350 9,800 -1,680 Descending Houston Center
12:32PM 29.3600 -95.8425 71° East 301 346 9,000 -1,560 Descending Houston Center
12:33PM 29.3722 -95.7986 72° East 300 345 8,200 -1,560 Descending Houston Center
12:33PM 29.3856 -95.7531 71° East 293 337 7,400 -1,560 Descending Houston Center
12:34PM 29.3978 -95.7114 71° East 293 337 6,600 -1,440 Descending Houston Center
12:34PM 29.4114 -95.6664 71° East 282 325 6,000 -600 Descending Houston Center
12:35PM 29.4225 -95.6269 72° East 284 327 6,000 -420 Level Houston Center
12:35PM 29.4353 -95.5819 72° East 278 320 5,600 -900 Descending Houston Center
12:36PM 29.4511 -95.5456 63° Northeast 278 320 5,100 -1,320 Descending Houston Center
12:36PM 29.4767 -95.5050 54° Northeast 262 302 4,300 -1,680 Descending Houston Center
12:37PM 29.5017 -95.4647 54° Northeast 262 302 3,400 -1,500 Descending Houston Center
12:37PM 29.5189 -95.4378 54° Northeast 256 295 2,800 -1,080 Descending Houston Center
12:38PM 29.5414 -95.3989 56° Northeast 256 295 2,300 -780 Descending Houston Center
12:38PM 29.5572 -95.3753 52° Northeast 224 258 2,000 -540 Descending Houston Center
12:39PM 29.5789 -95.3519 43° Northeast 218 251 1,800 -720 Descending Houston Center
12:39PM 29.5933 -95.3350 46° Northeast 151 174 1,300 -900 Descending Houston Center
12:40PM 29.6097 -95.3186 41° Northeast 176 203 900 -720 Descending Houston Center
12:40PM 29.6222 -95.3050 43° Northeast 126 145 600 -720 Descending Houston Center
12:41PM 29.6356 -95.2900 44° Northeast 148 170 200 -600 Descending Houston Center
12:43PM 29.6333 -95.2667 56° Northeast  Level FlightAware Approximate